sensor_id;sensor_type;location;lat;lon;timestamp;P1;durP1;ratioP1;P2;durP2;ratioP2
37201;SDS011;37799;52.390;6.136;2023-05-02T00:02:16;11.52;;;2.40;;
37201;SDS011;37799;52.390;6.136;2023-05-02T00:04:41;13.13;;;3.17;;
37201;SDS011;37799;52.390;6.136;2023-05-02T00:07:07;12.18;;;2.85;;
37201;SDS011;37799;52.390;6.136;2023-05-02T00:09:32;11.07;;;3.03;;
37201;SDS011;37799;52.390;6.136;2023-05-02T00:11:57;9.35;;;2.67;;
37201;SDS011;37799;52.390;6.136;2023-05-02T00:14:23;11.05;;;2.55;;
37201;SDS011;37799;52.390;6.136;2023-05-02T00:16:49;9.60;;;2.40;;
37201;SDS011;37799;52.390;6.136;2023-05-02T00:19:14;10.88;;;2.88;;
37201;SDS011;37799;52.390;6.136;2023-05-02T00:21:39;12.82;;;2.90;;
37201;SDS011;37799;52.390;6.136;2023-05-02T00:24:04;11.02;;;2.67;;
37201;SDS011;37799;52.390;6.136;2023-05-02T00:26:30;8.38;;;2.35;;
37201;SDS011;37799;52.390;6.136;2023-05-02T00:28:56;8.38;;;1.55;;
37201;SDS011;37799;52.390;6.136;2023-05-02T00:31:22;7.30;;;2.13;;
37201;SDS011;37799;52.390;6.136;2023-05-02T00:33:48;10.18;;;2.53;;
37201;SDS011;37799;52.390;6.136;2023-05-02T00:36:14;7.72;;;2.47;;
37201;SDS011;37799;52.390;6.136;2023-05-02T00:38:40;8.07;;;2.40;;
37201;SDS011;37799;52.390;6.136;2023-05-02T00:41:06;9.18;;;2.65;;
37201;SDS011;37799;52.390;6.136;2023-05-02T00:43:31;7.38;;;2.13;;
37201;SDS011;37799;52.390;6.136;2023-05-02T00:45:56;8.25;;;2.30;;
37201;SDS011;37799;52.390;6.136;2023-05-02T00:48:22;6.78;;;1.80;;
37201;SDS011;37799;52.390;6.136;2023-05-02T00:50:49;6.93;;;1.90;;
37201;SDS011;37799;52.390;6.136;2023-05-02T00:53:15;6.50;;;1.70;;
37201;SDS011;37799;52.390;6.136;2023-05-02T00:55:40;8.65;;;1.90;;
37201;SDS011;37799;52.390;6.136;2023-05-02T00:58:07;4.15;;;1.23;;
37201;SDS011;37799;52.390;6.136;2023-05-02T01:03:45;6.60;;;1.55;;
37201;SDS011;37799;52.390;6.136;2023-05-02T01:14:46;3.40;;;0.60;;
37201;SDS011;37799;52.390;6.136;2023-05-02T01:17:17;5.18;;;0.98;;
37201;SDS011;37799;52.390;6.136;2023-05-02T01:19:55;2.55;;;0.60;;
37201;SDS011;37799;52.390;6.136;2023-05-02T01:22:23;1.52;;;0.40;;
37201;SDS011;37799;52.390;6.136;2023-05-02T01:25:04;3.95;;;0.60;;
37201;SDS011;37799;52.390;6.136;2023-05-02T01:30:29;6.63;;;0.70;;
37201;SDS011;37799;52.390;6.136;2023-05-02T01:32:58;3.78;;;0.68;;
37201;SDS011;37799;52.390;6.136;2023-05-02T01:35:26;2.15;;;0.40;;
37201;SDS011;37799;52.390;6.136;2023-05-02T01:37:53;2.22;;;0.43;;
37201;SDS011;37799;52.390;6.136;2023-05-02T01:40:22;2.63;;;0.55;;
37201;SDS011;37799;52.390;6.136;2023-05-02T01:42:50;4.40;;;0.82;;
37201;SDS011;37799;52.390;6.136;2023-05-02T01:45:16;2.85;;;0.55;;
37201;SDS011;37799;52.390;6.136;2023-05-02T01:47:44;4.95;;;0.93;;
37201;SDS011;37799;52.390;6.136;2023-05-02T01:50:12;5.15;;;0.80;;
37201;SDS011;37799;52.390;6.136;2023-05-02T01:52:41;3.95;;;0.68;;
37201;SDS011;37799;52.390;6.136;2023-05-02T01:55:10;3.42;;;0.85;;
37201;SDS011;37799;52.390;6.136;2023-05-02T01:57:39;3.08;;;0.57;;
37201;SDS011;37799;52.390;6.136;2023-05-02T02:00:06;3.17;;;0.50;;
37201;SDS011;37799;52.390;6.136;2023-05-02T02:02:32;2.47;;;0.60;;
37201;SDS011;37799;52.390;6.136;2023-05-02T02:04:59;2.13;;;0.40;;
37201;SDS011;37799;52.390;6.136;2023-05-02T02:07:28;2.60;;;0.60;;
37201;SDS011;37799;52.390;6.136;2023-05-02T02:09:54;3.30;;;0.40;;
37201;SDS011;37799;52.390;6.136;2023-05-02T02:20:21;2.10;;;0.40;;
37201;SDS011;37799;52.390;6.136;2023-05-02T02:22:46;4.95;;;0.95;;
37201;SDS011;37799;52.390;6.136;2023-05-02T02:25:14;2.55;;;0.40;;
37201;SDS011;37799;52.390;6.136;2023-05-02T02:27:41;0.95;;;0.30;;
37201;SDS011;37799;52.390;6.136;2023-05-02T02:30:09;2.25;;;0.28;;
37201;SDS011;37799;52.390;6.136;2023-05-02T02:32:35;2.45;;;0.52;;
37201;SDS011;37799;52.390;6.136;2023-05-02T02:35:01;3.72;;;0.40;;
37201;SDS011;37799;52.390;6.136;2023-05-02T02:37:34;2.42;;;0.52;;
37201;SDS011;37799;52.390;6.136;2023-05-02T02:40:25;4.47;;;0.50;;
37201;SDS011;37799;52.390;6.136;2023-05-02T02:52:00;1.15;;;0.22;;
37201;SDS011;37799;52.390;6.136;2023-05-02T02:54:36;2.22;;;0.47;;
37201;SDS011;37799;52.390;6.136;2023-05-02T03:00:13;4.47;;;0.70;;
37201;SDS011;37799;52.390;6.136;2023-05-02T03:02:43;2.15;;;0.35;;
37201;SDS011;37799;52.390;6.136;2023-05-02T03:05:10;0.90;;;0.28;;
37201;SDS011;37799;52.390;6.136;2023-05-02T03:07:37;5.10;;;0.47;;
37201;SDS011;37799;52.390;6.136;2023-05-02T03:10:03;1.98;;;0.40;;
37201;SDS011;37799;52.390;6.136;2023-05-02T03:12:29;3.47;;;0.40;;
37201;SDS011;37799;52.390;6.136;2023-05-02T03:14:56;2.13;;;0.43;;
37201;SDS011;37799;52.390;6.136;2023-05-02T03:17:34;2.35;;;0.30;;
37201;SDS011;37799;52.390;6.136;2023-05-02T03:20:00;0.95;;;0.20;;
37201;SDS011;37799;52.390;6.136;2023-05-02T03:22:25;5.15;;;0.65;;
37201;SDS011;37799;52.390;6.136;2023-05-02T03:24:50;1.98;;;0.30;;
37201;SDS011;37799;52.390;6.136;2023-05-02T03:27:16;1.98;;;0.30;;
37201;SDS011;37799;52.390;6.136;2023-05-02T03:29:41;2.65;;;0.30;;
37201;SDS011;37799;52.390;6.136;2023-05-02T03:32:06;2.05;;;0.93;;
37201;SDS011;37799;52.390;6.136;2023-05-02T03:34:32;3.53;;;0.20;;
37201;SDS011;37799;52.390;6.136;2023-05-02T03:36:57;3.33;;;0.30;;
37201;SDS011;37799;52.390;6.136;2023-05-02T03:39:22;6.93;;;0.47;;
37201;SDS011;37799;52.390;6.136;2023-05-02T03:41:48;3.92;;;0.35;;
37201;SDS011;37799;52.390;6.136;2023-05-02T03:44:13;5.07;;;0.50;;
37201;SDS011;37799;52.390;6.136;2023-05-02T03:46:38;3.40;;;0.50;;
37201;SDS011;37799;52.390;6.136;2023-05-02T03:49:04;4.03;;;0.75;;
37201;SDS011;37799;52.390;6.136;2023-05-02T03:51:29;1.83;;;0.40;;
37201;SDS011;37799;52.390;6.136;2023-05-02T03:53:54;4.30;;;0.30;;
37201;SDS011;37799;52.390;6.136;2023-05-02T03:56:20;1.88;;;0.30;;
37201;SDS011;37799;52.390;6.136;2023-05-02T03:58:46;2.60;;;0.47;;
37201;SDS011;37799;52.390;6.136;2023-05-02T04:01:13;3.55;;;0.50;;
37201;SDS011;37799;52.390;6.136;2023-05-02T04:03:39;2.22;;;0.50;;
37201;SDS011;37799;52.390;6.136;2023-05-02T04:06:04;2.20;;;0.45;;
37201;SDS011;37799;52.390;6.136;2023-05-02T04:08:30;3.33;;;0.77;;
37201;SDS011;37799;52.390;6.136;2023-05-02T04:10:56;3.53;;;0.47;;
37201;SDS011;37799;52.390;6.136;2023-05-02T04:13:21;3.30;;;1.02;;
37201;SDS011;37799;52.390;6.136;2023-05-02T04:15:46;3.53;;;0.40;;
37201;SDS011;37799;52.390;6.136;2023-05-02T04:18:12;1.38;;;0.38;;
37201;SDS011;37799;52.390;6.136;2023-05-02T04:20:37;7.40;;;0.85;;
37201;SDS011;37799;52.390;6.136;2023-05-02T04:23:02;5.65;;;0.93;;
37201;SDS011;37799;52.390;6.136;2023-05-02T04:25:28;3.70;;;0.52;;
37201;SDS011;37799;52.390;6.136;2023-05-02T04:27:53;1.75;;;0.30;;
37201;SDS011;37799;52.390;6.136;2023-05-02T04:30:18;4.95;;;0.85;;
37201;SDS011;37799;52.390;6.136;2023-05-02T04:32:44;6.75;;;0.68;;
37201;SDS011;37799;52.390;6.136;2023-05-02T04:35:09;4.57;;;0.77;;
37201;SDS011;37799;52.390;6.136;2023-05-02T04:37:34;2.08;;;0.40;;
37201;SDS011;37799;52.390;6.136;2023-05-02T04:40:00;8.43;;;1.90;;
37201;SDS011;37799;52.390;6.136;2023-05-02T04:42:25;9.50;;;1.23;;
37201;SDS011;37799;52.390;6.136;2023-05-02T04:44:51;6.13;;;1.17;;
37201;SDS011;37799;52.390;6.136;2023-05-02T04:47:16;6.07;;;0.85;;
37201;SDS011;37799;52.390;6.136;2023-05-02T04:49:42;11.02;;;0.98;;
37201;SDS011;37799;52.390;6.136;2023-05-02T04:52:10;5.82;;;0.75;;
37201;SDS011;37799;52.390;6.136;2023-05-02T04:54:35;2.50;;;0.43;;
37201;SDS011;37799;52.390;6.136;2023-05-02T04:57:01;7.07;;;0.45;;
37201;SDS011;37799;52.390;6.136;2023-05-02T04:59:30;4.00;;;0.68;;
37201;SDS011;37799;52.390;6.136;2023-05-02T05:01:56;1.75;;;0.43;;
37201;SDS011;37799;52.390;6.136;2023-05-02T05:04:21;8.77;;;0.57;;
37201;SDS011;37799;52.390;6.136;2023-05-02T05:06:46;7.60;;;0.50;;
37201;SDS011;37799;52.390;6.136;2023-05-02T05:09:13;4.82;;;0.40;;
37201;SDS011;37799;52.390;6.136;2023-05-02T05:11:38;2.42;;;0.73;;
37201;SDS011;37799;52.390;6.136;2023-05-02T05:14:05;2.42;;;0.28;;
37201;SDS011;37799;52.390;6.136;2023-05-02T05:16:31;4.18;;;0.65;;
37201;SDS011;37799;52.390;6.136;2023-05-02T05:18:56;5.10;;;0.70;;
37201;SDS011;37799;52.390;6.136;2023-05-02T05:21:21;2.53;;;0.35;;
37201;SDS011;37799;52.390;6.136;2023-05-02T05:23:46;5.80;;;0.45;;
37201;SDS011;37799;52.390;6.136;2023-05-02T05:26:13;2.55;;;0.35;;
37201;SDS011;37799;52.390;6.136;2023-05-02T05:28:39;2.65;;;0.43;;
37201;SDS011;37799;52.390;6.136;2023-05-02T05:31:09;2.20;;;0.60;;
37201;SDS011;37799;52.390;6.136;2023-05-02T05:33:35;0.63;;;0.17;;
37201;SDS011;37799;52.390;6.136;2023-05-02T05:36:09;4.93;;;0.30;;
37201;SDS011;37799;52.390;6.136;2023-05-02T05:38:36;3.50;;;0.75;;
37201;SDS011;37799;52.390;6.136;2023-05-02T05:41:02;3.13;;;0.40;;
37201;SDS011;37799;52.390;6.136;2023-05-02T05:43:29;5.07;;;0.77;;
37201;SDS011;37799;52.390;6.136;2023-05-02T05:45:55;6.25;;;0.50;;
37201;SDS011;37799;52.390;6.136;2023-05-02T05:48:21;2.10;;;0.45;;
37201;SDS011;37799;52.390;6.136;2023-05-02T05:50:47;3.65;;;0.40;;
37201;SDS011;37799;52.390;6.136;2023-05-02T05:53:12;2.20;;;0.20;;
37201;SDS011;37799;52.390;6.136;2023-05-02T05:55:39;2.08;;;0.50;;
37201;SDS011;37799;52.390;6.136;2023-05-02T05:58:05;1.52;;;0.25;;
37201;SDS011;37799;52.390;6.136;2023-05-02T06:00:32;2.30;;;0.68;;
37201;SDS011;37799;52.390;6.136;2023-05-02T06:02:58;1.73;;;0.20;;
37201;SDS011;37799;52.390;6.136;2023-05-02T06:05:24;6.30;;;0.40;;
37201;SDS011;37799;52.390;6.136;2023-05-02T06:07:49;2.42;;;0.22;;
37201;SDS011;37799;52.390;6.136;2023-05-02T06:10:14;7.03;;;0.52;;
37201;SDS011;37799;52.390;6.136;2023-05-02T06:12:40;3.90;;;0.20;;
37201;SDS011;37799;52.390;6.136;2023-05-02T06:15:05;7.70;;;0.55;;
37201;SDS011;37799;52.390;6.136;2023-05-02T06:17:31;2.00;;;0.28;;
37201;SDS011;37799;52.390;6.136;2023-05-02T06:19:56;1.23;;;0.20;;
37201;SDS011;37799;52.390;6.136;2023-05-02T06:22:21;3.25;;;0.32;;
37201;SDS011;37799;52.390;6.136;2023-05-02T06:24:46;3.70;;;0.40;;
37201;SDS011;37799;52.390;6.136;2023-05-02T06:27:12;2.85;;;0.35;;
37201;SDS011;37799;52.390;6.136;2023-05-02T06:29:37;1.58;;;0.20;;
37201;SDS011;37799;52.390;6.136;2023-05-02T06:32:02;6.35;;;0.30;;
37201;SDS011;37799;52.390;6.136;2023-05-02T06:34:30;0.80;;;0.10;;
37201;SDS011;37799;52.390;6.136;2023-05-02T06:36:56;3.92;;;0.30;;
37201;SDS011;37799;52.390;6.136;2023-05-02T06:39:21;2.47;;;0.22;;
37201;SDS011;37799;52.390;6.136;2023-05-02T06:41:47;2.45;;;0.45;;
37201;SDS011;37799;52.390;6.136;2023-05-02T06:44:12;2.78;;;1.02;;
37201;SDS011;37799;52.390;6.136;2023-05-02T06:46:38;1.13;;;0.20;;
37201;SDS011;37799;52.390;6.136;2023-05-02T06:49:03;0.65;;;0.20;;
37201;SDS011;37799;52.390;6.136;2023-05-02T06:51:29;2.60;;;0.35;;
37201;SDS011;37799;52.390;6.136;2023-05-02T06:53:55;2.28;;;0.20;;
37201;SDS011;37799;52.390;6.136;2023-05-02T06:56:20;1.73;;;0.38;;
37201;SDS011;37799;52.390;6.136;2023-05-02T06:58:46;2.45;;;0.15;;
37201;SDS011;37799;52.390;6.136;2023-05-02T07:01:11;1.95;;;0.20;;
37201;SDS011;37799;52.390;6.136;2023-05-02T07:03:36;0.50;;;0.00;;
37201;SDS011;37799;52.390;6.136;2023-05-02T07:06:02;1.00;;;0.00;;
37201;SDS011;37799;52.390;6.136;2023-05-02T07:08:27;0.93;;;0.13;;
37201;SDS011;37799;52.390;6.136;2023-05-02T07:10:52;1.80;;;0.20;;
37201;SDS011;37799;52.390;6.136;2023-05-02T07:13:18;8.82;;;0.50;;
37201;SDS011;37799;52.390;6.136;2023-05-02T07:15:43;1.13;;;0.30;;
37201;SDS011;37799;52.390;6.136;2023-05-02T07:18:08;2.33;;;0.57;;
37201;SDS011;37799;52.390;6.136;2023-05-02T07:20:34;2.40;;;0.20;;
37201;SDS011;37799;52.390;6.136;2023-05-02T07:22:59;2.70;;;0.60;;
37201;SDS011;37799;52.390;6.136;2023-05-02T07:25:24;0.95;;;0.13;;
37201;SDS011;37799;52.390;6.136;2023-05-02T07:27:50;2.13;;;0.20;;
37201;SDS011;37799;52.390;6.136;2023-05-02T07:30:15;1.88;;;0.15;;
37201;SDS011;37799;52.390;6.136;2023-05-02T07:32:40;0.45;;;0.10;;
37201;SDS011;37799;52.390;6.136;2023-05-02T07:35:06;3.05;;;0.10;;
37201;SDS011;37799;52.390;6.136;2023-05-02T07:37:32;3.55;;;0.28;;
37201;SDS011;37799;52.390;6.136;2023-05-02T07:39:59;2.72;;;0.30;;
37201;SDS011;37799;52.390;6.136;2023-05-02T07:42:28;1.40;;;0.32;;
37201;SDS011;37799;52.390;6.136;2023-05-02T07:44:54;3.03;;;0.25;;
37201;SDS011;37799;52.390;6.136;2023-05-02T07:47:20;3.67;;;1.08;;
37201;SDS011;37799;52.390;6.136;2023-05-02T07:49:49;1.25;;;0.10;;
37201;SDS011;37799;52.390;6.136;2023-05-02T07:52:15;4.45;;;0.25;;
37201;SDS011;37799;52.390;6.136;2023-05-02T07:54:40;1.17;;;0.40;;
37201;SDS011;37799;52.390;6.136;2023-05-02T07:57:07;2.75;;;0.20;;
37201;SDS011;37799;52.390;6.136;2023-05-02T07:59:32;0.82;;;0.10;;
37201;SDS011;37799;52.390;6.136;2023-05-02T08:01:58;2.88;;;0.52;;
37201;SDS011;37799;52.390;6.136;2023-05-02T08:04:24;1.88;;;0.50;;
37201;SDS011;37799;52.390;6.136;2023-05-02T08:06:49;1.95;;;0.32;;
37201;SDS011;37799;52.390;6.136;2023-05-02T08:09:15;3.08;;;0.50;;
37201;SDS011;37799;52.390;6.136;2023-05-02T08:11:40;2.78;;;0.30;;
37201;SDS011;37799;52.390;6.136;2023-05-02T08:14:06;6.43;;;0.40;;
37201;SDS011;37799;52.390;6.136;2023-05-02T08:16:31;1.80;;;0.20;;
37201;SDS011;37799;52.390;6.136;2023-05-02T08:18:56;0.52;;;0.13;;
37201;SDS011;37799;52.390;6.136;2023-05-02T08:21:21;1.00;;;0.10;;
37201;SDS011;37799;52.390;6.136;2023-05-02T08:23:47;0.40;;;0.10;;
37201;SDS011;37799;52.390;6.136;2023-05-02T08:26:12;1.73;;;0.25;;
37201;SDS011;37799;52.390;6.136;2023-05-02T08:28:38;1.95;;;0.20;;
37201;SDS011;37799;52.390;6.136;2023-05-02T08:31:04;2.28;;;0.30;;
37201;SDS011;37799;52.390;6.136;2023-05-02T08:33:29;1.70;;;0.22;;
37201;SDS011;37799;52.390;6.136;2023-05-02T08:35:54;1.33;;;0.10;;
37201;SDS011;37799;52.390;6.136;2023-05-02T08:38:20;1.63;;;0.15;;
37201;SDS011;37799;52.390;6.136;2023-05-02T08:40:45;1.35;;;0.30;;
37201;SDS011;37799;52.390;6.136;2023-05-02T08:43:11;1.27;;;0.40;;
37201;SDS011;37799;52.390;6.136;2023-05-02T08:45:41;1.50;;;0.40;;
37201;SDS011;37799;52.390;6.136;2023-05-02T08:48:11;2.92;;;0.40;;
37201;SDS011;37799;52.390;6.136;2023-05-02T08:50:38;1.13;;;0.20;;
37201;SDS011;37799;52.390;6.136;2023-05-02T08:53:05;0.35;;;0.10;;
37201;SDS011;37799;52.390;6.136;2023-05-02T08:55:35;1.40;;;0.38;;
37201;SDS011;37799;52.390;6.136;2023-05-02T08:58:04;0.77;;;0.10;;
37201;SDS011;37799;52.390;6.136;2023-05-02T09:00:30;3.47;;;0.40;;
37201;SDS011;37799;52.390;6.136;2023-05-02T09:06:08;3.78;;;0.52;;
37201;SDS011;37799;52.390;6.136;2023-05-02T09:08:38;2.13;;;0.38;;
37201;SDS011;37799;52.390;6.136;2023-05-02T09:11:05;1.67;;;0.38;;
37201;SDS011;37799;52.390;6.136;2023-05-02T09:13:34;0.60;;;0.10;;
37201;SDS011;37799;52.390;6.136;2023-05-02T09:18:35;1.10;;;0.20;;
37201;SDS011;37799;52.390;6.136;2023-05-02T09:21:07;2.58;;;0.28;;
37201;SDS011;37799;52.390;6.136;2023-05-02T09:23:41;2.83;;;0.40;;
37201;SDS011;37799;52.390;6.136;2023-05-02T09:28:56;0.63;;;0.20;;
37201;SDS011;37799;52.390;6.136;2023-05-02T09:31:23;1.17;;;0.55;;
37201;SDS011;37799;52.390;6.136;2023-05-02T09:34:06;0.88;;;0.15;;
37201;SDS011;37799;52.390;6.136;2023-05-02T09:36:38;7.07;;;0.75;;
37201;SDS011;37799;52.390;6.136;2023-05-02T09:39:23;3.63;;;0.40;;
37201;SDS011;37799;52.390;6.136;2023-05-02T09:41:50;1.73;;;0.30;;
37201;SDS011;37799;52.390;6.136;2023-05-02T09:44:16;3.08;;;0.75;;
37201;SDS011;37799;52.390;6.136;2023-05-02T09:49:09;12.95;;;0.63;;
37201;SDS011;37799;52.390;6.136;2023-05-02T09:51:35;1.85;;;0.50;;
37201;SDS011;37799;52.390;6.136;2023-05-02T09:54:01;2.15;;;0.22;;
37201;SDS011;37799;52.390;6.136;2023-05-02T09:56:27;1.58;;;0.20;;
37201;SDS011;37799;52.390;6.136;2023-05-02T10:01:41;1.13;;;0.20;;
37201;SDS011;37799;52.390;6.136;2023-05-02T10:04:13;2.08;;;0.13;;
37201;SDS011;37799;52.390;6.136;2023-05-02T10:06:43;3.13;;;0.43;;
37201;SDS011;37799;52.390;6.136;2023-05-02T10:09:09;1.83;;;0.45;;
37201;SDS011;37799;52.390;6.136;2023-05-02T10:11:39;2.92;;;0.50;;
37201;SDS011;37799;52.390;6.136;2023-05-02T10:14:08;11.90;;;0.60;;
37201;SDS011;37799;52.390;6.136;2023-05-02T10:16:35;1.77;;;0.20;;
37201;SDS011;37799;52.390;6.136;2023-05-02T10:19:06;2.20;;;0.40;;
37201;SDS011;37799;52.390;6.136;2023-05-02T10:21:33;6.63;;;0.30;;
37201;SDS011;37799;52.390;6.136;2023-05-02T10:23:59;2.38;;;0.45;;
37201;SDS011;37799;52.390;6.136;2023-05-02T10:26:27;2.95;;;0.68;;
37201;SDS011;37799;52.390;6.136;2023-05-02T10:28:54;3.35;;;0.52;;
37201;SDS011;37799;52.390;6.136;2023-05-02T10:31:23;2.30;;;0.22;;
37201;SDS011;37799;52.390;6.136;2023-05-02T10:36:19;4.43;;;0.60;;
37201;SDS011;37799;52.390;6.136;2023-05-02T10:38:46;1.58;;;0.20;;
37201;SDS011;37799;52.390;6.136;2023-05-02T10:41:13;1.17;;;0.50;;
37201;SDS011;37799;52.390;6.136;2023-05-02T10:43:44;1.35;;;0.20;;
37201;SDS011;37799;52.390;6.136;2023-05-02T10:49:03;1.63;;;0.30;;
37201;SDS011;37799;52.390;6.136;2023-05-02T10:51:30;1.50;;;0.38;;
37201;SDS011;37799;52.390;6.136;2023-05-02T11:01:57;1.58;;;0.32;;
37201;SDS011;37799;52.390;6.136;2023-05-02T11:04:23;1.05;;;0.13;;
37201;SDS011;37799;52.390;6.136;2023-05-02T11:11:46;2.33;;;0.30;;
37201;SDS011;37799;52.390;6.136;2023-05-02T11:19:27;2.28;;;0.32;;
37201;SDS011;37799;52.390;6.136;2023-05-02T11:24:50;3.15;;;0.45;;
37201;SDS011;37799;52.390;6.136;2023-05-02T11:37:52;1.70;;;0.45;;
37201;SDS011;37799;52.390;6.136;2023-05-02T11:40:25;2.22;;;0.25;;
37201;SDS011;37799;52.390;6.136;2023-05-02T11:42:52;1.90;;;0.40;;
37201;SDS011;37799;52.390;6.136;2023-05-02T11:45:18;2.30;;;0.30;;
37201;SDS011;37799;52.390;6.136;2023-05-02T11:47:45;1.27;;;0.20;;
37201;SDS011;37799;52.390;6.136;2023-05-02T11:50:11;0.70;;;0.10;;
37201;SDS011;37799;52.390;6.136;2023-05-02T11:52:37;1.95;;;0.45;;
37201;SDS011;37799;52.390;6.136;2023-05-02T11:55:11;4.20;;;0.40;;
37201;SDS011;37799;52.390;6.136;2023-05-02T11:57:38;2.45;;;0.40;;
37201;SDS011;37799;52.390;6.136;2023-05-02T12:00:04;1.70;;;0.43;;
37201;SDS011;37799;52.390;6.136;2023-05-02T12:02:40;2.50;;;0.30;;
37201;SDS011;37799;52.390;6.136;2023-05-02T12:05:07;3.08;;;0.40;;
37201;SDS011;37799;52.390;6.136;2023-05-02T12:10:07;2.17;;;0.55;;
37201;SDS011;37799;52.390;6.136;2023-05-02T12:12:34;2.28;;;0.30;;
37201;SDS011;37799;52.390;6.136;2023-05-02T12:15:10;4.05;;;0.20;;
37201;SDS011;37799;52.390;6.136;2023-05-02T12:17:37;5.18;;;0.43;;
37201;SDS011;37799;52.390;6.136;2023-05-02T12:20:05;4.32;;;0.30;;
37201;SDS011;37799;52.390;6.136;2023-05-02T12:22:32;1.65;;;0.35;;
37201;SDS011;37799;52.390;6.136;2023-05-02T12:24:58;2.05;;;0.40;;
37201;SDS011;37799;52.390;6.136;2023-05-02T12:27:24;1.67;;;0.20;;
37201;SDS011;37799;52.390;6.136;2023-05-02T12:29:50;3.45;;;0.40;;
37201;SDS011;37799;52.390;6.136;2023-05-02T12:32:25;1.10;;;0.22;;
37201;SDS011;37799;52.390;6.136;2023-05-02T12:34:53;1.88;;;0.40;;
37201;SDS011;37799;52.390;6.136;2023-05-02T12:37:25;2.17;;;0.40;;
37201;SDS011;37799;52.390;6.136;2023-05-02T12:39:51;1.88;;;0.28;;
37201;SDS011;37799;52.390;6.136;2023-05-02T12:42:18;1.10;;;0.30;;
37201;SDS011;37799;52.390;6.136;2023-05-02T12:44:46;1.17;;;0.20;;
37201;SDS011;37799;52.390;6.136;2023-05-02T12:47:14;0.88;;;0.20;;
37201;SDS011;37799;52.390;6.136;2023-05-02T12:49:53;3.45;;;0.30;;
37201;SDS011;37799;52.390;6.136;2023-05-02T12:55:24;1.27;;;0.40;;
37201;SDS011;37799;52.390;6.136;2023-05-02T12:58:00;1.50;;;0.30;;
37201;SDS011;37799;52.390;6.136;2023-05-02T13:00:29;2.55;;;0.25;;
37201;SDS011;37799;52.390;6.136;2023-05-02T13:02:56;4.50;;;0.70;;
37201;SDS011;37799;52.390;6.136;2023-05-02T13:05:21;0.88;;;0.20;;
37201;SDS011;37799;52.390;6.136;2023-05-02T13:07:47;1.20;;;0.20;;
37201;SDS011;37799;52.390;6.136;2023-05-02T13:10:12;3.45;;;0.25;;
37201;SDS011;37799;52.390;6.136;2023-05-02T13:12:39;1.05;;;0.20;;
37201;SDS011;37799;52.390;6.136;2023-05-02T13:15:05;1.88;;;0.75;;
37201;SDS011;37799;52.390;6.136;2023-05-02T13:17:32;2.05;;;0.32;;
37201;SDS011;37799;52.390;6.136;2023-05-02T13:19:58;1.27;;;0.40;;
37201;SDS011;37799;52.390;6.136;2023-05-02T13:22:24;0.52;;;0.10;;
37201;SDS011;37799;52.390;6.136;2023-05-02T13:24:50;3.55;;;0.22;;
37201;SDS011;37799;52.390;6.136;2023-05-02T13:27:16;0.68;;;0.20;;
37201;SDS011;37799;52.390;6.136;2023-05-02T13:29:45;1.45;;;0.22;;
37201;SDS011;37799;52.390;6.136;2023-05-02T13:32:12;1.27;;;0.20;;
37201;SDS011;37799;52.390;6.136;2023-05-02T13:34:38;2.58;;;0.30;;
37201;SDS011;37799;52.390;6.136;2023-05-02T13:37:03;2.45;;;0.13;;
37201;SDS011;37799;52.390;6.136;2023-05-02T13:39:28;1.98;;;0.28;;
37201;SDS011;37799;52.390;6.136;2023-05-02T13:41:54;0.73;;;0.20;;
37201;SDS011;37799;52.390;6.136;2023-05-02T13:44:19;2.10;;;0.20;;
37201;SDS011;37799;52.390;6.136;2023-05-02T13:46:45;1.13;;;0.25;;
37201;SDS011;37799;52.390;6.136;2023-05-02T13:49:11;2.53;;;0.20;;
37201;SDS011;37799;52.390;6.136;2023-05-02T13:51:37;0.93;;;0.20;;
37201;SDS011;37799;52.390;6.136;2023-05-02T13:54:02;1.73;;;0.30;;
37201;SDS011;37799;52.390;6.136;2023-05-02T13:56:28;1.10;;;0.20;;
37201;SDS011;37799;52.390;6.136;2023-05-02T13:58:53;3.80;;;0.65;;
37201;SDS011;37799;52.390;6.136;2023-05-02T14:01:18;0.40;;;0.10;;
37201;SDS011;37799;52.390;6.136;2023-05-02T14:03:44;1.40;;;0.20;;
37201;SDS011;37799;52.390;6.136;2023-05-02T14:06:09;1.23;;;0.15;;
37201;SDS011;37799;52.390;6.136;2023-05-02T14:08:35;1.05;;;0.10;;
37201;SDS011;37799;52.390;6.136;2023-05-02T14:11:00;0.45;;;0.10;;
37201;SDS011;37799;52.390;6.136;2023-05-02T14:13:26;0.55;;;0.20;;
37201;SDS011;37799;52.390;6.136;2023-05-02T14:15:51;1.55;;;0.20;;
37201;SDS011;37799;52.390;6.136;2023-05-02T14:18:17;0.98;;;0.20;;
37201;SDS011;37799;52.390;6.136;2023-05-02T14:20:43;0.32;;;0.08;;
37201;SDS011;37799;52.390;6.136;2023-05-02T14:23:08;0.52;;;0.10;;
37201;SDS011;37799;52.390;6.136;2023-05-02T14:25:34;1.42;;;0.52;;
37201;SDS011;37799;52.390;6.136;2023-05-02T14:28:00;1.25;;;0.10;;
37201;SDS011;37799;52.390;6.136;2023-05-02T14:30:26;1.38;;;0.40;;
37201;SDS011;37799;52.390;6.136;2023-05-02T14:32:52;0.30;;;0.10;;
37201;SDS011;37799;52.390;6.136;2023-05-02T14:35:17;0.93;;;0.20;;
37201;SDS011;37799;52.390;6.136;2023-05-02T14:37:43;0.98;;;0.10;;
37201;SDS011;37799;52.390;6.136;2023-05-02T14:40:09;0.75;;;0.10;;
37201;SDS011;37799;52.390;6.136;2023-05-02T14:42:35;1.05;;;0.30;;
37201;SDS011;37799;52.390;6.136;2023-05-02T14:45:00;1.25;;;0.52;;
37201;SDS011;37799;52.390;6.136;2023-05-02T14:47:27;1.08;;;0.20;;
37201;SDS011;37799;52.390;6.136;2023-05-02T14:49:54;1.02;;;0.10;;
37201;SDS011;37799;52.390;6.136;2023-05-02T14:52:20;3.05;;;0.10;;
37201;SDS011;37799;52.390;6.136;2023-05-02T14:54:45;2.05;;;0.20;;
37201;SDS011;37799;52.390;6.136;2023-05-02T14:57:11;0.82;;;0.13;;
37201;SDS011;37799;52.390;6.136;2023-05-02T14:59:36;0.90;;;0.10;;
37201;SDS011;37799;52.390;6.136;2023-05-02T15:02:02;0.50;;;0.17;;
37201;SDS011;37799;52.390;6.136;2023-05-02T15:04:29;2.15;;;0.40;;
37201;SDS011;37799;52.390;6.136;2023-05-02T15:06:54;0.57;;;0.25;;
37201;SDS011;37799;52.390;6.136;2023-05-02T15:09:20;1.17;;;0.15;;
37201;SDS011;37799;52.390;6.136;2023-05-02T15:11:47;2.38;;;0.10;;
37201;SDS011;37799;52.390;6.136;2023-05-02T15:14:12;0.28;;;0.10;;
37201;SDS011;37799;52.390;6.136;2023-05-02T15:16:37;0.65;;;0.10;;
37201;SDS011;37799;52.390;6.136;2023-05-02T15:19:03;0.70;;;0.20;;
37201;SDS011;37799;52.390;6.136;2023-05-02T15:21:29;1.00;;;0.17;;
37201;SDS011;37799;52.390;6.136;2023-05-02T15:23:54;1.33;;;0.30;;
37201;SDS011;37799;52.390;6.136;2023-05-02T15:26:20;3.10;;;0.45;;
37201;SDS011;37799;52.390;6.136;2023-05-02T15:28:45;0.88;;;0.10;;
37201;SDS011;37799;52.390;6.136;2023-05-02T15:31:11;3.25;;;0.20;;
37201;SDS011;37799;52.390;6.136;2023-05-02T15:33:36;4.20;;;0.20;;
37201;SDS011;37799;52.390;6.136;2023-05-02T15:36:01;0.90;;;0.20;;
37201;SDS011;37799;52.390;6.136;2023-05-02T15:38:27;0.25;;;0.10;;
37201;SDS011;37799;52.390;6.136;2023-05-02T15:40:53;0.73;;;0.15;;
37201;SDS011;37799;52.390;6.136;2023-05-02T15:43:22;0.40;;;0.10;;
37201;SDS011;37799;52.390;6.136;2023-05-02T15:45:51;0.60;;;0.10;;
37201;SDS011;37799;52.390;6.136;2023-05-02T15:48:18;0.90;;;0.10;;
37201;SDS011;37799;52.390;6.136;2023-05-02T15:50:44;2.38;;;0.13;;
37201;SDS011;37799;52.390;6.136;2023-05-02T15:53:11;1.30;;;0.10;;
37201;SDS011;37799;52.390;6.136;2023-05-02T15:55:36;1.20;;;0.10;;
37201;SDS011;37799;52.390;6.136;2023-05-02T15:58:01;0.80;;;0.10;;
37201;SDS011;37799;52.390;6.136;2023-05-02T16:00:27;2.00;;;0.40;;
37201;SDS011;37799;52.390;6.136;2023-05-02T16:02:52;2.85;;;0.10;;
37201;SDS011;37799;52.390;6.136;2023-05-02T16:05:17;5.18;;;0.63;;
37201;SDS011;37799;52.390;6.136;2023-05-02T16:07:43;1.33;;;0.20;;
37201;SDS011;37799;52.390;6.136;2023-05-02T16:10:08;3.30;;;0.20;;
37201;SDS011;37799;52.390;6.136;2023-05-02T16:12:34;2.10;;;0.10;;
37201;SDS011;37799;52.390;6.136;2023-05-02T16:14:59;2.13;;;0.32;;
37201;SDS011;37799;52.390;6.136;2023-05-02T16:17:24;1.15;;;0.20;;